sensor_id;sensor_type;location;lat;lon;timestamp;pressure;altitude;pressure_sealevel;temperature;humidity
46534;BME280;32260;52.008;4.752;2022-12-10T00:01:19;100933.44;;;1.84;75.13
46534;BME280;32260;52.008;4.752;2022-12-10T00:03:45;100934.41;;;1.89;74.96
46534;BME280;32260;52.008;4.752;2022-12-10T00:06:16;100937.19;;;1.97;75.07
46534;BME280;32260;52.008;4.752;2022-12-10T00:08:45;100938.09;;;2.01;75.15
46534;BME280;32260;52.008;4.752;2022-12-10T00:11:14;100944.22;;;2.03;75.19
46534;BME280;32260;52.008;4.752;2022-12-10T00:13:46;100938.22;;;2.08;75.07
46534;BME280;32260;52.008;4.752;2022-12-10T00:16:14;100940.84;;;2.10;75.06
46534;BME280;32260;52.008;4.752;2022-12-10T00:18:43;100936.50;;;2.10;75.03
46534;BME280;32260;52.008;4.752;2022-12-10T00:21:12;100942.63;;;2.11;75.00
46534;BME280;32260;52.008;4.752;2022-12-10T00:23:40;100943.44;;;2.07;74.99
46534;BME280;32260;52.008;4.752;2022-12-10T00:26:13;100943.38;;;2.05;74.92
46534;BME280;32260;52.008;4.752;2022-12-10T00:28:47;100935.50;;;2.01;74.80
46534;BME280;32260;52.008;4.752;2022-12-10T00:31:22;100936.38;;;2.03;74.82
46534;BME280;32260;52.008;4.752;2022-12-10T00:33:55;100937.22;;;2.02;74.84
46534;BME280;32260;52.008;4.752;2022-12-10T00:36:34;100941.59;;;2.01;74.63
46534;BME280;32260;52.008;4.752;2022-12-10T00:39:04;100942.53;;;2.05;74.46
46534;BME280;32260;52.008;4.752;2022-12-10T00:41:35;100934.72;;;2.08;74.42
46534;BME280;32260;52.008;4.752;2022-12-10T00:44:02;100939.94;;;2.06;74.15
46534;BME280;32260;52.008;4.752;2022-12-10T00:46:28;100946.06;;;2.07;74.31
46534;BME280;32260;52.008;4.752;2022-12-10T00:48:55;100944.28;;;2.06;74.25
46534;BME280;32260;52.008;4.752;2022-12-10T00:51:23;100943.38;;;2.05;74.18
46534;BME280;32260;52.008;4.752;2022-12-10T00:53:53;100940.81;;;2.07;74.31
46534;BME280;32260;52.008;4.752;2022-12-10T00:56:23;100937.28;;;2.05;74.11
46534;BME280;32260;52.008;4.752;2022-12-10T00:58:50;100948.66;;;2.07;74.09
46534;BME280;32260;52.008;4.752;2022-12-10T01:01:29;100950.44;;;2.09;74.13
46534;BME280;32260;52.008;4.752;2022-12-10T01:04:05;100948.66;;;2.07;73.93
46534;BME280;32260;52.008;4.752;2022-12-10T01:06:34;100948.56;;;2.01;73.95
46534;BME280;32260;52.008;4.752;2022-12-10T01:09:04;100951.13;;;1.99;74.07
46534;BME280;32260;52.008;4.752;2022-12-10T01:11:35;100952.00;;;1.98;74.15
46534;BME280;32260;52.008;4.752;2022-12-10T01:14:09;100964.13;;;1.94;73.86
46534;BME280;32260;52.008;4.752;2022-12-10T01:16:38;100968.38;;;1.89;73.88
46534;BME280;32260;52.008;4.752;2022-12-10T01:19:05;100963.16;;;1.89;74.30
46534;BME280;32260;52.008;4.752;2022-12-10T01:21:32;100965.72;;;1.86;74.24
46534;BME280;32260;52.008;4.752;2022-12-10T01:23:58;100968.34;;;1.86;74.24
46534;BME280;32260;52.008;4.752;2022-12-10T01:26:35;100968.34;;;1.86;74.20
46534;BME280;32260;52.008;4.752;2022-12-10T01:29:04;100972.72;;;1.87;74.34
46534;BME280;32260;52.008;4.752;2022-12-10T01:31:38;100977.09;;;1.88;74.20
46534;BME280;32260;52.008;4.752;2022-12-10T01:34:47;100985.94;;;1.97;74.40
46534;BME280;32260;52.008;4.752;2022-12-10T01:37:38;100980.69;;;1.97;74.44
46534;BME280;32260;52.008;4.752;2022-12-10T01:40:13;100971.03;;;1.91;74.30
46534;BME280;32260;52.008;4.752;2022-12-10T01:42:40;100971.00;;;1.89;74.24
46534;BME280;32260;52.008;4.752;2022-12-10T01:45:10;100979.75;;;1.91;74.22
46534;BME280;32260;52.008;4.752;2022-12-10T01:47:37;100975.44;;;1.93;74.38
46534;BME280;32260;52.008;4.752;2022-12-10T01:50:07;100970.94;;;1.86;74.39
46534;BME280;32260;52.008;4.752;2022-12-10T01:52:41;100977.94;;;1.87;74.26
46534;BME280;32260;52.008;4.752;2022-12-10T01:55:36;100986.72;;;1.91;74.30
46534;BME280;32260;52.008;4.752;2022-12-10T01:58:00;100980.53;;;1.86;74.41
46534;BME280;32260;52.008;4.752;2022-12-10T02:00:26;100978.78;;;1.85;74.36
46534;BME280;32260;52.008;4.752;2022-12-10T02:03:02;100985.88;;;1.93;74.27
46534;BME280;32260;52.008;4.752;2022-12-10T02:05:40;100984.16;;;1.96;74.42
46534;BME280;32260;52.008;4.752;2022-12-10T02:10:58;100995.63;;;2.02;74.62
46534;BME280;32260;52.008;4.752;2022-12-10T02:13:33;100982.44;;;1.94;74.52
46534;BME280;32260;52.008;4.752;2022-12-10T02:17:13;100987.59;;;1.91;74.52
46534;BME280;32260;52.008;4.752;2022-12-10T02:19:04;100989.25;;;1.86;74.47
46534;BME280;32260;52.008;4.752;2022-12-10T02:21:36;100978.78;;;1.86;74.44
46534;BME280;32260;52.008;4.752;2022-12-10T02:24:06;100994.50;;;1.88;74.46
46534;BME280;32260;52.008;4.752;2022-12-10T02:27:01;100992.81;;;1.91;74.54
46534;BME280;32260;52.008;4.752;2022-12-10T02:29:30;100980.47;;;1.84;74.63
46534;BME280;32260;52.008;4.752;2022-12-10T02:32:20;100981.41;;;1.86;74.50
46534;BME280;32260;52.008;4.752;2022-12-10T02:34:50;100979.53;;;1.81;74.39
46534;BME280;32260;52.008;4.752;2022-12-10T02:37:27;100979.53;;;1.81;74.69
46534;BME280;32260;52.008;4.752;2022-12-10T02:39:56;100979.50;;;1.77;74.54
46534;BME280;32260;52.008;4.752;2022-12-10T02:42:25;100976.88;;;1.76;75.02
46534;BME280;32260;52.008;4.752;2022-12-10T02:44:54;100978.53;;;1.71;74.63
46534;BME280;32260;52.008;4.752;2022-12-10T02:47:22;100982.81;;;1.69;74.95
46534;BME280;32260;52.008;4.752;2022-12-10T02:49:49;100980.22;;;1.69;74.83
46534;BME280;32260;52.008;4.752;2022-12-10T02:52:19;100977.63;;;1.70;74.86
46534;BME280;32260;52.008;4.752;2022-12-10T02:54:47;100975.94;;;1.74;74.94
46534;BME280;32260;52.008;4.752;2022-12-10T02:57:40;100982.13;;;1.79;74.91
46534;BME280;32260;52.008;4.752;2022-12-10T03:00:13;100966.41;;;1.76;74.89
46534;BME280;32260;52.008;4.752;2022-12-10T03:08:08;100982.97;;;1.78;75.11
46534;BME280;32260;52.008;4.752;2022-12-10T03:13:18;100977.00;;;1.84;74.87
46534;BME280;32260;52.008;4.752;2022-12-10T03:15:50;100983.06;;;1.83;75.01
46534;BME280;32260;52.008;4.752;2022-12-10T03:18:22;100983.06;;;1.83;75.07
46534;BME280;32260;52.008;4.752;2022-12-10T03:20:52;100979.41;;;1.73;74.72
46534;BME280;32260;52.008;4.752;2022-12-10T03:23:24;100972.41;;;1.72;74.91
46534;BME280;32260;52.008;4.752;2022-12-10T03:25:51;100975.94;;;1.74;75.05
46534;BME280;32260;52.008;4.752;2022-12-10T03:28:19;100978.44;;;1.66;74.83
46534;BME280;32260;52.008;4.752;2022-12-10T03:30:48;100972.38;;;1.69;75.12
46534;BME280;32260;52.008;4.752;2022-12-10T03:33:15;100976.66;;;1.64;75.00
46534;BME280;32260;52.008;4.752;2022-12-10T03:35:42;100969.78;;;1.69;75.13
46534;BME280;32260;52.008;4.752;2022-12-10T03:38:10;100964.56;;;1.70;75.22
46534;BME280;32260;52.008;4.752;2022-12-10T03:40:37;100964.56;;;1.70;75.07
46534;BME280;32260;52.008;4.752;2022-12-10T03:43:03;100971.66;;;1.76;75.04
46534;BME280;32260;52.008;4.752;2022-12-10T03:45:29;100971.69;;;1.79;75.10
46534;BME280;32260;52.008;4.752;2022-12-10T03:47:55;100980.34;;;1.76;75.00
46534;BME280;32260;52.008;4.752;2022-12-10T03:50:21;100982.94;;;1.75;74.95
46534;BME280;32260;52.008;4.752;2022-12-10T03:52:47;100984.72;;;1.76;74.96
46534;BME280;32260;52.008;4.752;2022-12-10T03:55:13;100983.78;;;1.74;74.83
46534;BME280;32260;52.008;4.752;2022-12-10T03:57:40;100986.41;;;1.74;74.88
46534;BME280;32260;52.008;4.752;2022-12-10T04:00:06;100975.94;;;1.74;74.89
46534;BME280;32260;52.008;4.752;2022-12-10T04:02:33;100982.09;;;1.76;74.94
46534;BME280;32260;52.008;4.752;2022-12-10T04:04:59;100989.13;;;1.80;74.91
46534;BME280;32260;52.008;4.752;2022-12-10T04:07:25;100982.97;;;1.78;74.97
46534;BME280;32260;52.008;4.752;2022-12-10T04:09:51;100987.31;;;1.76;74.94
46534;BME280;32260;52.008;4.752;2022-12-10T04:12:17;100988.09;;;1.72;74.88
46534;BME280;32260;52.008;4.752;2022-12-10T04:14:43;100987.28;;;1.74;75.06
46534;BME280;32260;52.008;4.752;2022-12-10T04:17:32;100990.69;;;1.70;75.32
46534;BME280;32260;52.008;4.752;2022-12-10T04:19:59;100985.47;;;1.72;74.97
46534;BME280;32260;52.008;4.752;2022-12-10T04:22:25;100991.59;;;1.72;74.88
46534;BME280;32260;52.008;4.752;2022-12-10T04:25:12;100982.94;;;1.73;75.08
46534;BME280;32260;52.008;4.752;2022-12-10T04:27:58;100972.50;;;1.75;74.88
46534;BME280;32260;52.008;4.752;2022-12-10T04:30:25;100984.72;;;1.76;74.92
46534;BME280;32260;52.008;4.752;2022-12-10T04:32:51;100982.97;;;1.76;74.99
46534;BME280;32260;52.008;4.752;2022-12-10T04:35:17;100983.91;;;1.80;75.14
46534;BME280;32260;52.008;4.752;2022-12-10T04:37:43;100992.66;;;1.82;75.29
46534;BME280;32260;52.008;4.752;2022-12-10T04:40:09;100990.06;;;1.84;75.18
46534;BME280;32260;52.008;4.752;2022-12-10T04:42:36;100994.31;;;1.77;75.02
46534;BME280;32260;52.008;4.752;2022-12-10T04:45:02;100990.81;;;1.78;75.06
46534;BME280;32260;52.008;4.752;2022-12-10T04:47:29;100994.25;;;1.74;74.91
46534;BME280;32260;52.008;4.752;2022-12-10T04:49:55;100994.13;;;1.68;75.02
46534;BME280;32260;52.008;4.752;2022-12-10T04:52:21;100990.66;;;1.69;75.19
46534;BME280;32260;52.008;4.752;2022-12-10T04:54:47;100994.19;;;1.71;75.23
46534;BME280;32260;52.008;4.752;2022-12-10T04:57:14;100987.31;;;1.76;75.18
46534;BME280;32260;52.008;4.752;2022-12-10T04:59:40;100995.19;;;1.79;75.43
46534;BME280;32260;52.008;4.752;2022-12-10T05:02:07;100989.16;;;1.83;75.41
46534;BME280;32260;52.008;4.752;2022-12-10T05:04:33;100992.72;;;1.87;75.41
46534;BME280;32260;52.008;4.752;2022-12-10T05:07:00;100992.78;;;1.88;75.31
46534;BME280;32260;52.008;4.752;2022-12-10T05:09:26;100989.34;;;1.92;75.35
46534;BME280;32260;52.008;4.752;2022-12-10T05:11:52;100991.13;;;1.95;75.32
46534;BME280;32260;52.008;4.752;2022-12-10T05:14:18;100987.66;;;1.94;75.34
46534;BME280;32260;52.008;4.752;2022-12-10T05:16:44;100991.16;;;1.97;75.15
46534;BME280;32260;52.008;4.752;2022-12-10T05:19:11;100987.69;;;1.98;75.38
46534;BME280;32260;52.008;4.752;2022-12-10T05:21:37;100998.09;;;1.94;75.08
46534;BME280;32260;52.008;4.752;2022-12-10T05:24:24;100992.78;;;1.88;75.24
46534;BME280;32260;52.008;4.752;2022-12-10T05:26:50;100994.41;;;1.83;75.16
46534;BME280;32260;52.008;4.752;2022-12-10T05:29:17;100992.69;;;1.84;75.16
46534;BME280;32260;52.008;4.752;2022-12-10T05:31:44;100990.03;;;1.82;75.29
46534;BME280;32260;52.008;4.752;2022-12-10T05:34:11;100999.63;;;1.83;75.09
46534;BME280;32260;52.008;4.752;2022-12-10T05:36:37;100993.63;;;1.87;75.29
46534;BME280;32260;52.008;4.752;2022-12-10T05:39:04;100989.25;;;1.86;75.12
46534;BME280;32260;52.008;4.752;2022-12-10T05:41:33;100988.41;;;1.87;75.22
46534;BME280;32260;52.008;4.752;2022-12-10T05:44:00;100982.31;;;1.88;75.02
46534;BME280;32260;52.008;4.752;2022-12-10T05:46:29;100978.81;;;1.88;75.15
46534;BME280;32260;52.008;4.752;2022-12-10T05:48:56;100988.41;;;1.87;75.24
46534;BME280;32260;52.008;4.752;2022-12-10T05:51:26;100985.88;;;1.93;75.33
46534;BME280;32260;52.008;4.752;2022-12-10T05:53:53;100986.72;;;1.91;75.19
46534;BME280;32260;52.008;4.752;2022-12-10T05:56:22;100991.97;;;1.94;75.19
46534;BME280;32260;52.008;4.752;2022-12-10T05:58:52;100996.34;;;1.93;75.21
46534;BME280;32260;52.008;4.752;2022-12-10T06:01:22;100991.16;;;1.97;75.15
46534;BME280;32260;52.008;4.752;2022-12-10T06:03:49;100999.91;;;1.99;75.14
46534;BME280;32260;52.008;4.752;2022-12-10T06:06:21;101009.53;;;2.01;75.10
46534;BME280;32260;52.008;4.752;2022-12-10T06:08:49;101011.31;;;2.02;75.03
46534;BME280;32260;52.008;4.752;2022-12-10T06:11:15;101015.69;;;2.05;75.07
46534;BME280;32260;52.008;4.752;2022-12-10T06:13:41;101010.47;;;2.05;75.24
46534;BME280;32260;52.008;4.752;2022-12-10T06:16:10;101006.13;;;2.05;74.98
46534;BME280;32260;52.008;4.752;2022-12-10T06:18:37;101000.03;;;2.05;74.92
46534;BME280;32260;52.008;4.752;2022-12-10T06:21:05;101010.38;;;1.99;74.82
46534;BME280;32260;52.008;4.752;2022-12-10T06:23:33;101012.88;;;1.94;74.85
46534;BME280;32260;52.008;4.752;2022-12-10T06:26:02;101006.72;;;1.90;74.93
46534;BME280;32260;52.008;4.752;2022-12-10T06:28:29;101016.31;;;1.91;74.82
46534;BME280;32260;52.008;4.752;2022-12-10T06:30:57;101011.09;;;1.91;75.00
46534;BME280;32260;52.008;4.752;2022-12-10T06:33:26;101017.97;;;1.86;75.03
46534;BME280;32260;52.008;4.752;2022-12-10T06:35:52;101022.28;;;1.84;74.94
46534;BME280;32260;52.008;4.752;2022-12-10T06:38:18;101015.28;;;1.83;74.95
46534;BME280;32260;52.008;4.752;2022-12-10T06:40:44;101021.41;;;1.84;75.02
46534;BME280;32260;52.008;4.752;2022-12-10T06:43:10;101029.25;;;1.84;75.15
46534;BME280;32260;52.008;4.752;2022-12-10T06:45:40;101030.13;;;1.84;75.16
46534;BME280;32260;52.008;4.752;2022-12-10T06:48:07;101024.06;;;1.85;75.27
46534;BME280;32260;52.008;4.752;2022-12-10T06:50:34;101024.97;;;1.87;75.14
46534;BME280;32260;52.008;4.752;2022-12-10T06:53:00;101025.81;;;1.86;75.37
46534;BME280;32260;52.008;4.752;2022-12-10T06:55:27;101030.19;;;1.86;75.15
46534;BME280;32260;52.008;4.752;2022-12-10T06:57:54;101030.19;;;1.86;75.28
46534;BME280;32260;52.008;4.752;2022-12-10T07:00:21;101024.94;;;1.86;75.11
46534;BME280;32260;52.008;4.752;2022-12-10T07:02:47;101039.81;;;1.88;75.32
46534;BME280;32260;52.008;4.752;2022-12-10T07:05:14;101037.22;;;1.90;75.26
46534;BME280;32260;52.008;4.752;2022-12-10T07:07:41;101044.22;;;1.91;75.16
46534;BME280;32260;52.008;4.752;2022-12-10T07:10:08;101039.84;;;1.91;75.18
46534;BME280;32260;52.008;4.752;2022-12-10T07:12:35;101047.78;;;1.96;75.35
46534;BME280;32260;52.008;4.752;2022-12-10T07:15:01;101050.38;;;1.94;75.23
46534;BME280;32260;52.008;4.752;2022-12-10T07:17:27;101047.78;;;1.96;74.95
46534;BME280;32260;52.008;4.752;2022-12-10T07:19:54;101051.16;;;1.90;75.05
46534;BME280;32260;52.008;4.752;2022-12-10T07:22:20;101048.50;;;1.87;75.04
46534;BME280;32260;52.008;4.752;2022-12-10T07:24:48;101049.34;;;1.86;74.94
46534;BME280;32260;52.008;4.752;2022-12-10T07:27:14;101053.72;;;1.87;75.23
46534;BME280;32260;52.008;4.752;2022-12-10T07:29:40;101049.34;;;1.86;75.01
46534;BME280;32260;52.008;4.752;2022-12-10T07:32:06;101051.94;;;1.86;75.02
46534;BME280;32260;52.008;4.752;2022-12-10T07:34:32;101049.31;;;1.85;75.17
46534;BME280;32260;52.008;4.752;2022-12-10T07:36:58;101053.63;;;1.84;75.03
46534;BME280;32260;52.008;4.752;2022-12-10T07:39:25;101055.41;;;1.85;75.13
46534;BME280;32260;52.008;4.752;2022-12-10T07:41:52;101055.38;;;1.82;75.22
46534;BME280;32260;52.008;4.752;2022-12-10T07:44:20;101058.13;;;1.90;75.07
46534;BME280;32260;52.008;4.752;2022-12-10T07:46:48;101063.25;;;1.85;74.94
46534;BME280;32260;52.008;4.752;2022-12-10T07:49:14;101062.28;;;1.80;74.96
46534;BME280;32260;52.008;4.752;2022-12-10T07:51:44;101064.91;;;1.82;74.95
46534;BME280;32260;52.008;4.752;2022-12-10T07:54:11;101075.28;;;1.77;75.08
46534;BME280;32260;52.008;4.752;2022-12-10T07:56:38;101071.88;;;1.81;74.87
46534;BME280;32260;52.008;4.752;2022-12-10T07:59:04;101077.13;;;1.81;75.03
46534;BME280;32260;52.008;4.752;2022-12-10T08:01:30;101070.13;;;1.80;74.99
46534;BME280;32260;52.008;4.752;2022-12-10T08:03:56;101079.88;;;1.89;75.13
46534;BME280;32260;52.008;4.752;2022-12-10T08:06:24;101064.16;;;1.87;74.96
46534;BME280;32260;52.008;4.752;2022-12-10T08:08:50;101069.38;;;1.86;74.96
46534;BME280;32260;52.008;4.752;2022-12-10T08:11:18;101070.13;;;1.80;74.76
46534;BME280;32260;52.008;4.752;2022-12-10T08:13:45;101072.78;;;1.83;74.83
46534;BME280;32260;52.008;4.752;2022-12-10T08:16:14;101073.69;;;1.85;74.76
46534;BME280;32260;52.008;4.752;2022-12-10T08:18:41;101075.50;;;1.89;74.79
46534;BME280;32260;52.008;4.752;2022-12-10T08:21:11;101085.06;;;1.87;74.73
46534;BME280;32260;52.008;4.752;2022-12-10T08:23:38;101088.53;;;1.86;74.56
46534;BME280;32260;52.008;4.752;2022-12-10T08:26:06;101089.41;;;1.87;74.78
46534;BME280;32260;52.008;4.752;2022-12-10T08:28:33;101093.75;;;1.86;74.72
46534;BME280;32260;52.008;4.752;2022-12-10T08:31:00;101095.44;;;1.84;74.68
46534;BME280;32260;52.008;4.752;2022-12-10T08:33:26;101098.13;;;1.87;74.48
46534;BME280;32260;52.008;4.752;2022-12-10T08:35:56;101111.09;;;1.83;74.61
46534;BME280;32260;52.008;4.752;2022-12-10T08:38:22;101107.66;;;1.85;74.89
46534;BME280;32260;52.008;4.752;2022-12-10T08:40:48;101110.19;;;1.81;74.42
46534;BME280;32260;52.008;4.752;2022-12-10T08:43:14;101105.78;;;1.78;74.81
46534;BME280;32260;52.008;4.752;2022-12-10T08:45:41;101111.78;;;1.72;74.61
46534;BME280;32260;52.008;4.752;2022-12-10T08:48:07;101113.53;;;1.73;74.53
46534;BME280;32260;52.008;4.752;2022-12-10T08:50:33;101107.50;;;1.76;74.53
46534;BME280;32260;52.008;4.752;2022-12-10T08:53:00;101114.44;;;1.75;74.42
46534;BME280;32260;52.008;4.752;2022-12-10T08:55:26;101114.56;;;1.82;74.79
46534;BME280;32260;52.008;4.752;2022-12-10T08:57:52;101123.03;;;1.70;74.28
46534;BME280;32260;52.008;4.752;2022-12-10T09:00:18;101116.06;;;1.70;74.46
46534;BME280;32260;52.008;4.752;2022-12-10T09:02:45;101126.50;;;1.69;74.58
46534;BME280;32260;52.008;4.752;2022-12-10T09:05:11;101129.94;;;1.68;74.49
46534;BME280;32260;52.008;4.752;2022-12-10T09:07:38;101123.13;;;1.74;74.37
46534;BME280;32260;52.008;4.752;2022-12-10T09:10:04;101137.94;;;1.75;74.83
46534;BME280;32260;52.008;4.752;2022-12-10T09:12:32;101133.50;;;1.70;74.53
46534;BME280;32260;52.008;4.752;2022-12-10T09:14:58;101124.81;;;1.71;74.61
46534;BME280;32260;52.008;4.752;2022-12-10T09:17:24;101125.78;;;1.76;74.52
46534;BME280;32260;52.008;4.752;2022-12-10T09:19:50;101130.06;;;1.74;74.70
46534;BME280;32260;52.008;4.752;2022-12-10T09:22:17;101123.16;;;1.76;74.55
46534;BME280;32260;52.008;4.752;2022-12-10T09:24:43;101127.53;;;1.77;74.63
46534;BME280;32260;52.008;4.752;2022-12-10T09:27:09;101129.28;;;1.78;74.70
46534;BME280;32260;52.008;4.752;2022-12-10T09:29:35;101131.06;;;1.79;74.66
46534;BME280;32260;52.008;4.752;2022-12-10T09:32:04;101136.34;;;1.82;74.72
46534;BME280;32260;52.008;4.752;2022-12-10T09:34:30;101144.13;;;1.81;74.41
46534;BME280;32260;52.008;4.752;2022-12-10T09:36:56;101142.47;;;1.84;74.51
46534;BME280;32260;52.008;4.752;2022-12-10T09:39:23;101156.50;;;1.89;74.72
46534;BME280;32260;52.008;4.752;2022-12-10T09:42:01;101156.72;;;1.99;74.67
46534;BME280;32260;52.008;4.752;2022-12-10T09:47:46;101151.50;;;1.99;74.38
46534;BME280;32260;52.008;4.752;2022-12-10T09:50:20;101157.75;;;2.07;74.46
46534;BME280;32260;52.008;4.752;2022-12-10T09:52:49;101149.81;;;2.01;74.25
46534;BME280;32260;52.008;4.752;2022-12-10T09:55:20;101155.06;;;2.02;74.42
46534;BME280;32260;52.008;4.752;2022-12-10T09:57:50;101149.03;;;2.08;74.12
46534;BME280;32260;52.008;4.752;2022-12-10T10:00:21;101150.03;;;2.13;74.23
46534;BME280;32260;52.008;4.752;2022-12-10T10:02:49;101151.91;;;2.20;74.32
46534;BME280;32260;52.008;4.752;2022-12-10T10:05:22;101154.63;;;2.26;74.44
46534;BME280;32260;52.008;4.752;2022-12-10T10:07:53;101153.88;;;2.31;74.21
46534;BME280;32260;52.008;4.752;2022-12-10T10:10:29;101163.50;;;2.33;74.11
46534;BME280;32260;52.008;4.752;2022-12-10T10:13:09;101160.94;;;2.36;74.05
46534;BME280;32260;52.008;4.752;2022-12-10T10:15:40;101154.03;;;2.40;74.05
46534;BME280;32260;52.008;4.752;2022-12-10T10:18:29;101154.97;;;2.43;74.01
46534;BME280;32260;52.008;4.752;2022-12-10T10:21:00;101159.25;;;2.40;73.68
46534;BME280;32260;52.008;4.752;2022-12-10T10:23:26;101153.22;;;2.44;73.67
46534;BME280;32260;52.008;4.752;2022-12-10T10:25:52;101150.56;;;2.41;73.84
46534;BME280;32260;52.008;4.752;2022-12-10T10:28:21;101150.50;;;2.38;73.99
46534;BME280;32260;52.008;4.752;2022-12-10T10:30:47;101158.19;;;2.30;73.43
46534;BME280;32260;52.008;4.752;2022-12-10T10:33:17;101161.72;;;2.32;73.61
46534;BME280;32260;52.008;4.752;2022-12-10T10:38:24;101165.31;;;2.37;73.40
46534;BME280;32260;52.008;4.752;2022-12-10T10:40:54;101163.69;;;2.44;73.54
46534;BME280;32260;52.008;4.752;2022-12-10T10:43:26;101165.47;;;2.47;73.67
46534;BME280;32260;52.008;4.752;2022-12-10T10:46:06;101169.88;;;2.49;73.60
46534;BME280;32260;52.008;4.752;2022-12-10T10:48:40;101162.06;;;2.51;73.05
46534;BME280;32260;52.008;4.752;2022-12-10T10:53:49;101157.78;;;2.54;73.17
46534;BME280;32260;52.008;4.752;2022-12-10T10:56:39;101160.53;;;2.62;73.07
46534;BME280;32260;52.008;4.752;2022-12-10T10:59:20;101169.13;;;2.55;72.99
46534;BME280;32260;52.008;4.752;2022-12-10T11:01:55;101161.25;;;2.53;72.66
46534;BME280;32260;52.008;4.752;2022-12-10T11:04:30;101163.91;;;2.56;72.85
46534;BME280;32260;52.008;4.752;2022-12-10T11:06:59;101165.69;;;2.59;73.12
46534;BME280;32260;52.008;4.752;2022-12-10T11:09:29;101163.13;;;2.61;72.94
46534;BME280;32260;52.008;4.752;2022-12-10T11:12:01;101163.16;;;2.64;72.80
46534;BME280;32260;52.008;4.752;2022-12-10T11:17:49;101156.91;;;2.55;72.96
46534;BME280;32260;52.008;4.752;2022-12-10T11:22:57;101155.28;;;2.62;72.93
46534;BME280;32260;52.008;4.752;2022-12-10T11:25:54;101152.81;;;2.70;73.07
46534;BME280;32260;52.008;4.752;2022-12-10T11:36:57;101153.63;;;2.67;73.08
46534;BME280;32260;52.008;4.752;2022-12-10T11:40:09;101163.13;;;2.61;73.11
46534;BME280;32260;52.008;4.752;2022-12-10T11:42:43;101157.09;;;2.66;72.85
46534;BME280;32260;52.008;4.752;2022-12-10T11:48:28;101152.81;;;2.71;73.13
46534;BME280;32260;52.008;4.752;2022-12-10T11:50:58;101157.91;;;2.61;72.83
46534;BME280;32260;52.008;4.752;2022-12-10T11:56:23;101147.66;;;2.73;72.85
46534;BME280;32260;52.008;4.752;2022-12-10T12:03:07;101152.91;;;2.76;73.21
46534;BME280;32260;52.008;4.752;2022-12-10T12:05:07;101156.38;;;2.75;73.11
46534;BME280;32260;52.008;4.752;2022-12-10T12:10:41;101147.03;;;2.88;72.82
46534;BME280;32260;52.008;4.752;2022-12-10T12:16:01;101149.59;;;2.86;73.03
46534;BME280;32260;52.008;4.752;2022-12-10T12:21:11;101149.59;;;2.86;73.12
46534;BME280;32260;52.008;4.752;2022-12-10T12:23:49;101149.69;;;2.92;73.10
46534;BME280;32260;52.008;4.752;2022-12-10T12:26:37;101149.78;;;2.97;72.86
46534;BME280;32260;52.008;4.752;2022-12-10T12:31:45;101153.06;;;2.85;72.68
46534;BME280;32260;52.008;4.752;2022-12-10T12:37:09;101139.91;;;2.81;72.79
46534;BME280;32260;52.008;4.752;2022-12-10T12:40:20;101141.69;;;2.83;72.75
46534;BME280;32260;52.008;4.752;2022-12-10T12:45:58;101142.50;;;2.79;73.12
46534;BME280;32260;52.008;4.752;2022-12-10T12:50:55;101133.75;;;2.77;72.89
46534;BME280;32260;52.008;4.752;2022-12-10T12:53:25;101139.00;;;2.79;73.14
46534;BME280;32260;52.008;4.752;2022-12-10T13:04:16;101165.16;;;2.77;73.35
46534;BME280;32260;52.008;4.752;2022-12-10T13:13:22;101165.97;;;2.73;73.45
46534;BME280;32260;52.008;4.752;2022-12-10T13:15:49;101162.25;;;2.62;73.33
46534;BME280;32260;52.008;4.752;2022-12-10T13:18:25;101168.50;;;2.68;73.28
46534;BME280;32260;52.008;4.752;2022-12-10T13:21:28;101156.22;;;2.66;73.29
46534;BME280;32260;52.008;4.752;2022-12-10T13:24:12;101158.13;;;2.74;73.38
46534;BME280;32260;52.008;4.752;2022-12-10T13:27:01;101165.91;;;2.71;73.55
46534;BME280;32260;52.008;4.752;2022-12-10T13:29:28;101163.25;;;2.67;73.52
46534;BME280;32260;52.008;4.752;2022-12-10T13:32:04;101168.50;;;2.70;73.70
46534;BME280;32260;52.008;4.752;2022-12-10T13:34:38;101162.44;;;2.71;73.59
46534;BME280;32260;52.008;4.752;2022-12-10T13:38:17;101177.28;;;2.73;73.63
46534;BME280;32260;52.008;4.752;2022-12-10T13:40:12;101174.69;;;2.75;73.48
46534;BME280;32260;52.008;4.752;2022-12-10T13:42:44;101173.69;;;2.67;73.83
46534;BME280;32260;52.008;4.752;2022-12-10T13:45:35;101173.03;;;2.79;73.75
46534;BME280;32260;52.008;4.752;2022-12-10T13:54:58;101179.09;;;2.76;73.30
46534;BME280;32260;52.008;4.752;2022-12-10T13:56:44;101179.94;;;2.77;73.20
46534;BME280;32260;52.008;4.752;2022-12-10T14:05:43;101174.81;;;2.83;73.78
46534;BME280;32260;52.008;4.752;2022-12-10T14:07:57;101182.72;;;2.84;73.43
46534;BME280;32260;52.008;4.752;2022-12-10T14:10:32;101182.72;;;2.84;73.67
46534;BME280;32260;52.008;4.752;2022-12-10T14:13:02;101172.19;;;2.81;73.84
46534;BME280;32260;52.008;4.752;2022-12-10T14:15:29;101179.16;;;2.79;73.58
46534;BME280;32260;52.008;4.752;2022-12-10T14:18:12;101173.94;;;2.82;73.55
46534;BME280;32260;52.008;4.752;2022-12-10T14:20:44;101171.34;;;2.82;73.81
46534;BME280;32260;52.008;4.752;2022-12-10T14:23:31;101167.97;;;2.88;73.86
46534;BME280;32260;52.008;4.752;2022-12-10T14:26:09;101163.44;;;2.79;73.77
46534;BME280;32260;52.008;4.752;2022-12-10T14:28:42;101168.75;;;2.85;73.71
46534;BME280;32260;52.008;4.752;2022-12-10T14:31:14;101169.69;;;2.87;73.90
46534;BME280;32260;52.008;4.752;2022-12-10T14:33:43;101169.69;;;2.87;73.50
46534;BME280;32260;52.008;4.752;2022-12-10T14:36:31;101168.75;;;2.85;73.67
46534;BME280;32260;52.008;4.752;2022-12-10T14:38:59;101166.22;;;2.90;74.08
46534;BME280;32260;52.008;4.752;2022-12-10T14:41:28;101166.19;;;2.87;73.65
46534;BME280;32260;52.008;4.752;2022-12-10T14:43:54;101167.13;;;2.90;73.71
46534;BME280;32260;52.008;4.752;2022-12-10T14:46:24;101168.81;;;2.88;73.83
46534;BME280;32260;52.008;4.752;2022-12-10T14:48:52;101167.16;;;2.94;73.76